Time;durP1;ratioP1;P1;durP2;ratioP2;P2;SDS_P1;SDS_P2;PMS_P1;PMS_P2;Temp;Humidity;BMP_temperature;BMP_pressure;BME280_temperature;BME280_humidity;BME280_pressure;Samples;Min_cycle;Max_cycle;Signal;HPM_P1;HPM_P2
2021/11/20 00:01:30;;;;;;;6.10;5.00;;;;;;;9.72;81.38;99213.41;214874;1320;22583;-75
2021/11/20 00:06:39;;;;;;;7.70;5.90;;;;;;;9.72;81.06;99217.48;214462;1316;22575;-75
2021/11/20 00:11:43;;;;;;;8.70;5.40;;;;;;;9.71;81.05;99211.64;214664;1317;24360;-75
2021/11/20 00:16:48;;;;;;;5.70;4.30;;;;;;;9.70;81.20;99204.41;214659;1319;24318;-75
2021/11/20 00:22:16;;;;;;;6.30;5.20;;;;;;;9.71;80.95;99214.16;214697;1319;25355;-76
2021/11/20 00:27:35;;;;;;;5.20;4.20;;;;;;;9.71;80.86;99204.69;214675;1316;22584;-75
2021/11/20 00:32:41;;;;;;;5.90;4.30;;;;;;;9.71;80.76;99197.73;214553;1321;22724;-75
2021/11/20 00:37:56;;;;;;;5.70;4.00;;;;;;;9.71;80.53;99203.03;214807;1316;22628;-75
2021/11/20 00:43:09;;;;;;;5.50;4.00;;;;;;;9.69;80.26;99195.29;214650;1322;22567;-75
2021/11/20 00:48:14;;;;;;;5.50;3.50;;;;;;;9.68;80.30;99193.75;214836;1320;22582;-75
2021/11/20 00:53:17;;;;;;;5.90;3.70;;;;;;;9.67;79.98;99197.48;214526;1321;25235;-76
2021/11/20 00:58:21;;;;;;;4.70;3.30;;;;;;;9.66;79.79;99193.15;214712;1322;22543;-75
2021/11/20 01:03:25;;;;;;;5.20;3.80;;;;;;;9.67;79.63;99196.36;214602;1320;24331;-75
2021/11/20 01:08:40;;;;;;;4.10;3.50;;;;;;;9.67;79.53;99192.14;214800;1320;22532;-75
2021/11/20 01:13:53;;;;;;;3.60;3.10;;;;;;;9.66;79.21;99186.25;214761;1319;23011;-75
2021/11/20 01:18:58;;;;;;;5.00;3.20;;;;;;;9.66;79.08;99179.08;214587;1316;22535;-75
2021/11/20 01:24:20;;;;;;;4.80;3.00;;;;;;;9.65;79.02;99170.02;214537;1320;23188;-75
2021/11/20 01:29:39;;;;;;;3.30;2.80;;;;;;;9.64;78.74;99167.37;214334;1317;23327;-75
2021/11/20 01:34:41;;;;;;;4.30;2.90;;;;;;;9.63;78.69;99160.64;214316;1313;22630;-76
2021/11/20 01:39:45;;;;;;;6.70;3.30;;;;;;;9.59;78.48;99160.54;214680;1315;23630;-75
2021/11/20 01:45:23;;;;;;;6.30;3.10;;;;;;;9.54;77.80;99163.27;214708;1313;24244;-75
2021/11/20 01:50:39;;;;;;;5.00;3.10;;;;;;;9.47;78.19;99171.05;214484;1317;22678;-76
2021/11/20 01:55:50;;;;;;;4.30;3.00;;;;;;;9.46;78.35;99170.10;214551;1315;24247;-76
2021/11/20 02:01:21;;;;;;;7.10;3.90;;;;;;;9.49;78.14;99155.00;214496;1315;25397;-75
2021/11/20 02:06:43;;;;;;;4.60;2.90;;;;;;;9.50;78.12;99155.90;214728;1315;24323;-75
2021/11/20 02:12:11;;;;;;;3.80;3.10;;;;;;;9.49;77.83;99146.83;214636;1316;25242;-75
2021/11/20 02:17:40;;;;;;;4.10;3.20;;;;;;;9.50;77.81;99146.27;214473;1320;22655;-75
2021/11/20 02:22:51;;;;;;;6.10;3.10;;;;;;;9.51;77.61;99144.13;214650;1322;22678;-75
2021/11/20 02:27:57;;;;;;;5.60;3.00;;;;;;;9.53;77.71;99142.36;214772;1320;22535;-76
2021/11/20 02:33:28;;;;;;;4.60;3.90;;;;;;;9.52;77.45;99137.07;214713;1322;25403;-75
2021/11/20 02:38:48;;;;;;;4.30;3.00;;;;;;;9.49;77.49;99140.56;214737;1322;24352;-75
2021/11/20 02:43:54;;;;;;;4.60;3.00;;;;;;;9.52;77.41;99131.34;214842;1313;22982;-76
2021/11/20 02:48:58;;;;;;;7.00;3.00;;;;;;;9.52;77.42;99137.88;214944;1318;22594;-76
2021/11/20 02:54:10;;;;;;;3.60;2.50;;;;;;;9.56;77.64;99129.84;214743;1321;22636;-76
2021/11/20 02:59:13;;;;;;;3.60;2.50;;;;;;;9.61;77.54;99126.77;214636;1321;22666;-76
2021/11/20 03:04:24;;;;;;;4.70;2.80;;;;;;;9.62;77.55;99126.83;214821;1320;22616;-76
2021/11/20 03:09:30;;;;;;;3.60;2.30;;;;;;;9.65;77.64;99129.54;214758;1319;23088;-75
2021/11/20 03:14:52;;;;;;;3.80;2.50;;;;;;;9.68;77.63;99137.93;214843;1318;22578;-75
2021/11/20 03:19:59;;;;;;;5.60;2.50;;;;;;;9.72;77.58;99139.90;214684;1320;22621;-75
2021/11/20 03:25:02;;;;;;;3.60;2.60;;;;;;;9.73;77.45;99143.05;214595;1316;22517;-75
2021/11/20 03:30:06;;;;;;;4.20;2.60;;;;;;;9.77;77.57;99138.76;214567;1316;22604;-75
2021/11/20 03:35:10;;;;;;;3.30;2.80;;;;;;;9.81;77.53;99147.52;214547;1321;22764;-75
2021/11/20 03:40:15;;;;;;;7.50;2.80;;;;;;;9.81;77.49;99152.38;214608;1321;24224;-75
2021/11/20 03:45:20;;;;;;;3.60;2.70;;;;;;;9.82;77.43;99147.40;214381;1321;23286;-76
2021/11/20 03:50:27;;;;;;;3.20;2.60;;;;;;;9.85;77.33;99154.94;214621;1320;24247;-76
2021/11/20 03:55:33;;;;;;;3.90;2.90;;;;;;;9.83;77.39;99161.38;214613;1320;22605;-75
2021/11/20 04:00:49;;;;;;;5.00;3.20;;;;;;;9.80;77.22;99158.39;214738;1316;24205;-75
2021/11/20 04:05:58;;;;;;;4.60;3.50;;;;;;;9.79;77.38;99166.26;214323;1322;22608;-76
2021/11/20 04:11:13;;;;;;;4.70;3.30;;;;;;;9.79;77.44;99168.93;214672;1316;22586;-76
2021/11/20 04:16:17;;;;;;;7.60;4.00;;;;;;;9.77;77.48;99181.62;214684;1316;22584;-75
2021/11/20 04:21:34;;;;;;;4.20;3.60;;;;;;;9.79;77.50;99178.88;214737;1316;25268;-76
2021/11/20 04:26:36;;;;;;;4.20;3.20;;;;;;;9.78;77.51;99188.99;214624;1317;24228;-75
2021/11/20 04:31:39;;;;;;;4.50;3.80;;;;;;;9.78;77.85;99187.66;214469;1316;22585;-75
2021/11/20 04:36:42;;;;;;;4.00;3.40;;;;;;;9.76;77.89;99183.48;214462;1322;22620;-76
2021/11/20 04:41:45;;;;;;;4.20;3.00;;;;;;;9.74;78.01;99181.63;215000;1321;25383;-76
2021/11/20 04:46:47;;;;;;;4.60;3.20;;;;;;;9.71;78.11;99176.71;214759;1316;24238;-76
2021/11/20 04:51:50;;;;;;;4.10;3.70;;;;;;;9.72;78.40;99180.77;214592;1321;25373;-76
2021/11/20 04:56:52;;;;;;;4.00;3.60;;;;;;;9.71;78.50;99179.81;214426;1317;22532;-76
2021/11/20 05:01:57;;;;;;;4.40;3.60;;;;;;;9.71;78.57;99185.16;214542;1319;23946;-75
2021/11/20 05:07:07;;;;;;;6.30;3.30;;;;;;;9.69;78.72;99185.92;214526;1320;24186;-76
2021/11/20 05:12:29;;;;;;;6.20;3.80;;;;;;;9.63;79.04;99188.17;207053;1316;22512;-75
2021/11/20 05:17:37;;;;;;;6.30;3.90;;;;;;;9.61;79.19;99196.68;214544;1313;22598;-75
2021/11/20 05:22:48;;;;;;;4.50;3.60;;;;;;;9.59;79.42;99198.98;214739;1321;22784;-75
2021/11/20 05:27:53;;;;;;;4.50;3.40;;;;;;;9.56;79.54;99200.29;214927;1313;22882;-75
2021/11/20 05:32:59;;;;;;;4.70;3.50;;;;;;;9.53;79.79;99201.36;214884;1313;23955;-75
2021/11/20 05:38:03;;;;;;;4.30;3.30;;;;;;;9.54;79.93;99207.99;214887;1320;22674;-76
2021/11/20 05:43:09;;;;;;;3.90;3.50;;;;;;;9.52;80.05;99202.92;214880;1319;25309;-75
2021/11/20 05:48:12;;;;;;;4.30;3.90;;;;;;;9.50;80.27;99206.52;214739;1320;22673;-75
2021/11/20 05:53:17;;;;;;;5.20;3.60;;;;;;;9.52;80.25;99215.70;214774;1317;24241;-76
2021/11/20 05:58:32;;;;;;;7.50;4.30;;;;;;;9.49;80.31;99210.15;214394;1321;24314;-76
2021/11/20 06:03:44;;;;;;;6.90;4.00;;;;;;;9.44;80.53;99214.59;214730;1316;25078;-76
2021/11/20 06:08:47;;;;;;;4.20;3.60;;;;;;;9.42;80.68;99219.90;214625;1318;22679;-75
2021/11/20 06:13:49;;;;;;;5.30;4.60;;;;;;;9.39;80.76;99228.88;214784;1320;25466;-75
2021/11/20 06:19:10;;;;;;;6.40;4.20;;;;;;;9.32;80.92;99236.42;214846;1321;23041;-75
2021/11/20 06:24:15;;;;;;;5.70;4.10;;;;;;;9.32;81.08;99244.77;214596;1316;25401;-75
2021/11/20 06:29:17;;;;;;;6.60;5.00;;;;;;;9.35;81.09;99244.98;214684;1320;24686;-75
2021/11/20 06:34:22;;;;;;;8.00;5.40;;;;;;;9.31;81.13;99254.12;214682;1316;22743;-75
2021/11/20 06:40:03;;;;;;;4.40;3.90;;;;;;;9.30;81.32;99263.42;214503;1317;22822;-76
2021/11/20 06:45:23;;;;;;;5.30;4.60;;;;;;;9.32;81.33;99269.15;214746;1317;22677;-76
2021/11/20 06:50:45;;;;;;;9.70;5.20;;;;;;;9.35;81.43;99272.04;214739;1315;22739;-75
2021/11/20 06:56:14;;;;;;;8.40;6.40;;;;;;;9.40;81.35;99264.98;214500;1316;25404;-75
2021/11/20 07:01:39;;;;;;;7.30;5.70;;;;;;;9.44;81.49;99263.48;214881;1316;22980;-75
2021/11/20 07:07:02;;;;;;;7.70;5.80;;;;;;;9.48;81.59;99274.80;214862;1318;22681;-76
2021/11/20 07:12:16;;;;;;;7.50;5.70;;;;;;;9.53;81.33;99281.92;215037;1316;22629;-76
2021/11/20 07:17:19;;;;;;;5.90;5.30;;;;;;;9.59;81.36;99282.71;215004;1320;22500;-76
2021/11/20 07:22:44;;;;;;;5.40;4.40;;;;;;;9.64;81.35;99275.65;214939;1320;23092;-77
2021/11/20 07:27:49;;;;;;;5.20;4.60;;;;;;;9.72;81.21;99287.63;214967;1316;22663;-77
2021/11/20 07:32:52;;;;;;;5.70;5.10;;;;;;;9.84;81.39;99287.50;215013;1321;22541;-78
2021/11/20 07:37:55;;;;;;;5.90;4.50;;;;;;;9.86;80.86;99283.69;214967;1321;22650;-77
2021/11/20 07:42:57;;;;;;;6.00;4.80;;;;;;;9.84;80.91;99284.07;215503;1315;22627;-76
2021/11/20 07:48:36;;;;;;;7.10;5.60;;;;;;;9.78;80.94;99280.13;215549;1316;23857;-77
2021/11/20 07:53:49;;;;;;;6.00;4.50;;;;;;;9.73;81.16;99283.19;215505;1321;22768;-76
2021/11/20 07:58:54;;;;;;;8.60;6.20;;;;;;;9.69;81.38;99288.54;215603;1319;22533;-76
2021/11/20 08:03:56;;;;;;;7.00;5.60;;;;;;;9.62;81.69;99292.08;215826;1316;22906;-77
2021/11/20 08:09:05;;;;;;;6.60;5.40;;;;;;;9.52;82.13;99291.02;215977;1316;24215;-77
2021/11/20 08:14:39;;;;;;;6.70;4.80;;;;;;;9.45;82.63;99289.41;215210;1316;25258;-77
2021/11/20 08:19:55;;;;;;;5.80;4.90;;;;;;;9.43;82.87;99290.75;215783;1316;23692;-77
2021/11/20 08:25:24;;;;;;;6.70;6.00;;;;;;;9.45;83.13;99287.53;215605;1316;23246;-77
2021/11/20 08:30:50;;;;;;;6.60;5.30;;;;;;;9.45;83.36;99291.17;215683;1316;22793;-77
2021/11/20 08:35:55;;;;;;;7.90;6.20;;;;;;;9.48;83.47;99289.67;215581;1316;22622;-78
2021/11/20 08:41:17;;;;;;;7.40;5.70;;;;;;;9.53;83.58;99292.52;215599;1316;22638;-78
2021/11/20 08:46:20;;;;;;;7.40;6.00;;;;;;;9.55;83.76;99294.33;215473;1316;25242;-78
2021/11/20 08:51:28;;;;;;;6.60;6.00;;;;;;;9.50;83.86;99293.52;215626;1316;22759;-78
2021/11/20 08:56:39;;;;;;;6.60;5.70;;;;;;;9.46;84.01;99291.98;215642;1319;24409;-78
2021/11/20 09:02:10;;;;;;;6.80;5.20;;;;;;;9.52;84.35;99290.52;215453;1316;25410;-77
2021/11/20 09:07:43;;;;;;;6.30;5.50;;;;;;;9.58;84.54;99287.58;215614;1313;22710;-77
2021/11/20 09:13:22;;;;;;;7.30;6.00;;;;;;;9.62;84.53;99289.61;215563;1316;25350;-78
2021/11/20 09:18:25;;;;;;;7.40;5.50;;;;;;;9.63;84.52;99291.65;215301;1317;23853;-77
2021/11/20 09:23:27;;;;;;;6.60;4.90;;;;;;;9.67;84.59;99292.83;215598;1315;22892;-77
2021/11/20 09:29:16;;;;;;;6.50;5.50;;;;;;;9.74;84.52;99285.59;215653;1313;23195;-77
2021/11/20 09:34:32;;;;;;;6.60;5.90;;;;;;;9.81;84.83;99280.66;215576;1315;22598;-77
2021/11/20 09:40:01;;;;;;;7.60;5.10;;;;;;;9.79;84.43;99277.08;215591;1319;22627;-77
2021/11/20 09:45:14;;;;;;;7.60;5.30;;;;;;;9.76;84.28;99275.11;215641;1315;22579;-77
2021/11/20 09:50:38;;;;;;;6.50;5.30;;;;;;;9.76;84.48;99273.34;215334;1320;25360;-77
2021/11/20 09:55:46;;;;;;;6.40;4.60;;;;;;;9.77;84.56;99270.60;215370;1320;22635;-77
2021/11/20 10:01:25;;;;;;;5.70;5.10;;;;;;;9.77;84.42;99264.62;215561;1319;22627;-77
2021/11/20 10:06:39;;;;;;;7.80;4.50;;;;;;;9.75;84.40;99275.25;215563;1317;22737;-77
2021/11/20 10:11:48;;;;;;;4.90;4.40;;;;;;;9.77;84.39;99270.12;215609;1316;22578;-76
2021/11/20 10:16:55;;;;;;;8.30;5.30;;;;;;;9.70;84.43;99273.55;215361;1315;22849;-77
2021/11/20 10:22:40;;;;;;;6.40;4.70;;;;;;;9.64;84.34;99266.34;215827;1316;23052;-76
2021/11/20 10:27:57;;;;;;;5.90;4.90;;;;;;;9.68;84.73;99265.80;213871;1324;24230;-77
2021/11/20 10:33:32;;;;;;;5.80;4.40;;;;;;;9.67;84.52;99263.24;215398;1316;25494;-77
2021/11/20 10:38:55;;;;;;;4.90;4.40;;;;;;;9.66;84.73;99252.80;215388;1321;25382;-77
2021/11/20 10:44:13;;;;;;;5.00;4.20;;;;;;;9.63;84.58;99246.34;215281;1315;22958;-77
2021/11/20 10:49:47;;;;;;;4.90;4.40;;;;;;;9.66;84.87;99241.04;215537;1319;24272;-77
2021/11/20 10:55:12;;;;;;;5.50;4.90;;;;;;;9.67;84.77;99235.05;215330;1322;22652;-77
2021/11/20 11:00:41;;;;;;;5.10;4.40;;;;;;;9.58;84.66;99235.70;215420;1316;25373;-77
2021/11/20 11:06:20;;;;;;;5.40;4.80;;;;;;;9.53;85.19;99226.29;215105;1322;25359;-76
2021/11/20 11:11:41;;;;;;;6.50;5.50;;;;;;;9.50;85.05;99224.26;215223;1315;25335;-77
2021/11/20 11:16:54;;;;;;;5.70;4.60;;;;;;;9.52;85.33;99226.34;215237;1316;22747;-77
2021/11/20 11:22:12;;;;;;;5.20;4.60;;;;;;;9.61;85.40;99218.89;215331;1315;22751;-77
2021/11/20 11:27:41;;;;;;;4.20;3.80;;;;;;;9.66;85.37;99214.18;215344;1316;22829;-76
2021/11/20 11:32:46;;;;;;;5.20;4.60;;;;;;;9.69;85.34;99208.65;215400;1315;22743;-77
2021/11/20 11:37:48;;;;;;;5.10;3.70;;;;;;;9.82;85.58;99196.38;215341;1316;23077;-78
2021/11/20 11:42:56;;;;;;;6.40;5.20;;;;;;;9.96;85.50;99196.48;215506;1315;23033;-77
2021/11/20 11:48:12;;;;;;;7.50;5.40;;;;;;;10.01;85.18;99189.44;215367;1321;22839;-76
2021/11/20 11:53:53;;;;;;;4.90;4.40;;;;;;;10.00;84.82;99186.18;215184;1316;25365;-76
2021/11/20 11:59:23;;;;;;;4.90;3.90;;;;;;;10.01;84.92;99184.58;215630;1316;25478;-78
2021/11/20 12:04:28;;;;;;;;;;;;;;;10.07;85.10;99181.23;215174;1316;24064;-77
2021/11/20 12:09:37;;;;;;;5.70;5.10;;;;;;;10.11;85.23;99171.57;214766;1322;22637;-76
2021/11/20 12:14:44;;;;;;;5.50;4.90;;;;;;;10.13;85.15;99169.21;215069;1324;22593;-76
2021/11/20 12:20:16;;;;;;;6.70;4.80;;;;;;;10.21;85.10;99157.70;214641;1323;22642;-76
2021/11/20 12:25:25;;;;;;;5.50;4.80;;;;;;;10.33;85.08;99154.23;214484;1322;25002;-76
2021/11/20 12:30:40;;;;;;;6.40;5.50;;;;;;;10.39;84.90;99147.52;214830;1321;24253;-76
2021/11/20 12:36:10;;;;;;;5.00;4.40;;;;;;;10.41;84.75;99141.09;214643;1322;25889;-76
2021/11/20 12:41:16;;;;;;;7.20;5.00;;;;;;;10.44;84.43;99131.46;214689;1322;23843;-75
2021/11/20 12:46:45;;;;;;;7.40;5.30;;;;;;;10.45;84.09;99128.41;214922;1322;22568;-76
2021/11/20 12:52:05;;;;;;;7.50;5.70;;;;;;;10.55;84.39;99113.02;214741;1316;22671;-76
2021/11/20 12:57:42;;;;;;;6.40;4.90;;;;;;;10.58;84.02;99105.54;214493;1320;25394;-76
2021/11/20 13:03:03;;;;;;;10.00;6.80;;;;;;;10.60;83.87;99107.63;214788;1317;25223;-76
2021/11/20 13:08:22;;;;;;;7.60;5.70;;;;;;;10.48;83.21;99099.73;214347;1322;173760;-75
2021/11/20 13:13:30;;;;;;;9.10;5.50;;;;;;;10.37;83.19;99087.32;214499;1324;22551;-75
2021/11/20 13:18:36;;;;;;;6.90;6.20;;;;;;;10.32;83.42;99076.79;215050;1322;25344;-76
2021/11/20 13:23:40;;;;;;;9.30;6.80;;;;;;;10.37;83.68;99087.77;214982;1322;25863;-76
2021/11/20 13:28:45;;;;;;;9.60;5.50;;;;;;;10.36;83.48;99074.63;214511;1318;22626;-76
2021/11/20 13:33:47;;;;;;;6.20;5.00;;;;;;;10.32;83.17;99063.81;214814;1322;22697;-76
2021/11/20 13:38:49;;;;;;;6.20;5.60;;;;;;;10.29;83.02;99059.87;214725;1324;22909;-75
2021/11/20 13:43:58;;;;;;;5.80;5.20;;;;;;;10.26;83.12;99054.60;214815;1322;25451;-75
2021/11/20 13:49:04;;;;;;;5.30;4.50;;;;;;;10.27;83.14;99056.58;214561;1322;22595;-76
2021/11/20 13:54:09;;;;;;;6.50;5.10;;;;;;;10.30;83.26;99054.67;214481;1321;24311;-76
2021/11/20 13:59:16;;;;;;;4.60;4.10;;;;;;;10.30;83.05;99052.86;214333;1318;25360;-76
2021/11/20 14:04:21;;;;;;;8.40;5.20;;;;;;;10.24;83.06;99053.11;214788;1322;23354;-76
2021/11/20 14:09:23;;;;;;;7.70;6.10;;;;;;;10.13;82.75;99049.55;214491;1322;22619;-76
2021/11/20 14:14:25;;;;;;;8.50;6.20;;;;;;;10.02;83.01;99043.84;214946;1322;24247;-76
2021/11/20 14:19:29;;;;;;;9.40;6.70;;;;;;;9.99;83.11;99036.53;214507;1322;22644;-76
2021/11/20 14:24:34;;;;;;;14.20;9.80;;;;;;;9.98;83.20;99033.21;214706;1316;22658;-76
2021/11/20 14:29:40;;;;;;;14.10;9.20;;;;;;;9.99;83.20;99029.79;214948;1316;22503;-76
2021/11/20 14:34:45;;;;;;;15.50;11.10;;;;;;;9.99;83.22;99024.75;214831;1319;22575;-76
2021/11/20 14:39:55;;;;;;;19.20;13.50;;;;;;;10.00;83.16;99016.49;214828;1316;22638;-76
2021/11/20 14:45:14;;;;;;;18.20;12.90;;;;;;;9.96;82.97;99014.80;215096;1320;23081;-77
2021/11/20 14:50:23;;;;;;;19.70;12.90;;;;;;;9.91;83.05;99014.48;215177;1322;22615;-77
2021/11/20 14:55:31;;;;;;;24.80;14.40;;;;;;;9.89;82.99;99005.06;214548;1321;22559;-77
2021/11/20 15:00:33;;;;;;;22.50;15.20;;;;;;;9.84;83.11;99003.61;214888;1322;22653;-76
2021/11/20 15:05:36;;;;;;;21.50;15.40;;;;;;;9.79;83.06;99005.98;214701;1324;23155;-76
2021/11/20 15:10:40;;;;;;;23.80;16.90;;;;;;;9.77;83.16;99002.73;215134;1316;25642;-76
2021/11/20 15:15:43;;;;;;;23.70;17.40;;;;;;;9.77;83.06;98995.80;215288;1321;25465;-76
2021/11/20 15:20:46;;;;;;;29.10;18.60;;;;;;;9.72;82.90;98986.34;214493;1321;23017;-76
2021/11/20 15:25:49;;;;;;;28.60;17.80;;;;;;;9.66;83.05;98985.36;214852;1322;22524;-77
2021/11/20 15:30:51;;;;;;;29.40;20.40;;;;;;;9.65;83.06;98982.69;214720;1318;25348;-76
2021/11/20 15:35:55;;;;;;;28.80;19.60;;;;;;;9.62;83.23;98977.14;215147;1317;22576;-76
2021/11/20 15:40:57;;;;;;;29.30;19.60;;;;;;;9.59;83.16;98975.23;214950;1317;25365;-77
2021/11/20 15:46:00;;;;;;;29.80;19.60;;;;;;;9.59;83.19;98971.80;214925;1322;25451;-76
2021/11/20 15:51:03;;;;;;;28.10;20.10;;;;;;;9.58;83.15;98968.71;214827;1320;22548;-76
2021/11/20 15:56:05;;;;;;;30.50;20.80;;;;;;;9.54;83.11;98960.40;214949;1322;22660;-76
2021/11/20 16:01:07;;;;;;;26.80;18.30;;;;;;;9.51;83.24;98959.23;215041;1319;22690;-75
2021/11/20 16:06:22;;;;;;;26.30;16.70;;;;;;;9.49;83.21;98953.58;214774;1320;24275;-76
2021/11/20 16:11:32;;;;;;;24.50;16.20;;;;;;;9.47;83.40;98950.70;214707;1322;22716;-76
2021/11/20 16:16:34;;;;;;;27.00;18.10;;;;;;;9.48;83.31;98949.59;214652;1323;25428;-76
2021/11/20 16:21:37;;;;;;;24.70;17.30;;;;;;;9.49;83.21;98938.13;214764;1320;24378;-76
2021/11/20 16:26:43;;;;;;;24.40;18.20;;;;;;;9.49;83.42;98931.28;215200;1317;24220;-76
2021/11/20 16:31:46;;;;;;;25.10;18.00;;;;;;;9.51;83.28;98933.62;215206;1319;24206;-76
2021/11/20 16:36:48;;;;;;;28.30;18.60;;;;;;;9.52;83.07;98931.79;215030;1320;23928;-75
2021/11/20 16:41:50;;;;;;;26.10;18.30;;;;;;;9.50;83.09;98926.23;215006;1321;24448;-76
2021/11/20 16:46:52;;;;;;;32.30;20.40;;;;;;;9.46;83.12;98924.19;214880;1322;22522;-76
2021/11/20 16:57:32;;;;;;;26.10;17.20;;;;;;;9.48;83.17;98928.88;215124;1320;22521;-77
2021/11/20 17:02:44;;;;;;;21.10;14.50;;;;;;;9.51;83.12;98921.69;215197;1320;22653;-77
2021/11/20 17:07:46;;;;;;;18.40;12.20;;;;;;;9.53;82.78;98916.34;214893;1322;22590;-77
2021/11/20 17:12:48;;;;;;;15.60;10.50;;;;;;;9.52;82.51;98912.77;215004;1322;22582;-77
2021/11/20 17:17:51;;;;;;;13.10;9.60;;;;;;;9.51;82.47;98908.54;215201;1321;22733;-76
2021/11/20 17:22:53;;;;;;;13.20;9.10;;;;;;;9.51;82.35;98904.58;215052;1321;23051;-76
2021/11/20 17:27:55;;;;;;;11.60;8.50;;;;;;;9.51;82.32;98903.84;214900;1316;22511;-76
2021/11/20 17:32:57;;;;;;;11.60;8.70;;;;;;;9.51;82.04;98904.67;214786;1324;22670;-76
2021/11/20 17:37:59;;;;;;;12.90;8.70;;;;;;;9.51;81.86;98898.05;214932;1322;22903;-76
2021/11/20 17:43:03;;;;;;;11.90;8.60;;;;;;;9.51;81.85;98896.87;215069;1322;22591;-75
2021/11/20 17:48:20;;;;;;;11.80;8.50;;;;;;;9.52;81.73;98891.84;215103;1320;24256;-77
2021/11/20 17:53:37;;;;;;;12.50;8.80;;;;;;;9.53;81.56;98886.86;214696;1316;24326;-77
2021/11/20 17:58:43;;;;;;;12.50;8.00;;;;;;;9.49;81.42;98875.28;214922;1320;24251;-76
2021/11/20 18:03:45;;;;;;;11.60;8.60;;;;;;;9.46;81.42;98868.34;214782;1318;22585;-77
2021/11/20 18:08:52;;;;;;;13.60;9.30;;;;;;;9.44;81.44;98867.62;215065;1322;23741;-76
2021/11/20 18:13:54;;;;;;;17.40;10.70;;;;;;;9.45;81.51;98864.67;214448;1322;22637;-76
2021/11/20 18:18:56;;;;;;;10.20;8.10;;;;;;;9.49;81.64;98856.02;215174;1322;23212;-76
2021/11/20 18:23:59;;;;;;;16.40;11.10;;;;;;;9.53;81.36;98852.53;214510;1322;25385;-76
2021/11/20 18:29:01;;;;;;;16.40;11.50;;;;;;;9.46;81.09;98847.50;214808;1316;24279;-77
2021/11/20 18:34:03;;;;;;;20.30;12.50;;;;;;;9.37;81.27;98841.73;214705;1316;22753;-77
2021/11/20 18:39:06;;;;;;;23.90;15.10;;;;;;;9.33;81.30;98838.23;214829;1318;22769;-76
2021/11/20 18:44:08;;;;;;;25.10;15.90;;;;;;;9.29;81.54;98833.72;214864;1321;25902;-76
2021/11/20 18:49:14;;;;;;;24.50;15.90;;;;;;;9.25;81.54;98827.86;214584;1317;22611;-76
2021/11/20 18:54:16;;;;;;;25.20;17.20;;;;;;;9.21;81.61;98822.38;214583;1321;22797;-76
2021/11/20 18:59:19;;;;;;;84.80;53.50;;;;;;;9.16;81.66;98815.61;214919;1320;22566;-77
2021/11/20 19:04:21;;;;;;;27.20;16.00;;;;;;;9.11;81.84;98814.80;214762;1321;25227;-77
2021/11/20 19:09:23;;;;;;;33.30;17.60;;;;;;;9.03;81.75;98805.77;215151;1322;24225;-76
2021/11/20 19:14:25;;;;;;;25.70;17.30;;;;;;;8.98;81.89;98804.62;215119;1320;25376;-77
2021/11/20 19:19:27;;;;;;;28.70;17.30;;;;;;;8.93;81.96;98804.12;214557;1319;22577;-77
2021/11/20 19:24:29;;;;;;;28.00;18.50;;;;;;;8.87;81.96;98797.89;214689;1317;22625;-77
2021/11/20 19:29:32;;;;;;;28.20;18.20;;;;;;;8.84;82.04;98798.40;214562;1324;23251;-77
2021/11/20 19:34:34;;;;;;;25.90;17.00;;;;;;;8.79;82.06;98794.42;214865;1321;22596;-76
2021/11/20 19:39:50;;;;;;;26.50;17.40;;;;;;;8.75;82.02;98786.48;215118;1321;23337;-76
2021/11/20 19:45:06;;;;;;;25.80;16.20;;;;;;;8.69;82.05;98779.89;214802;1320;22507;-76
2021/11/20 19:50:09;;;;;;;23.20;15.20;;;;;;;8.61;82.07;98778.87;215208;1317;22700;-76
2021/11/20 19:55:12;;;;;;;25.20;15.90;;;;;;;8.56;82.29;98771.47;214916;1316;24230;-76
2021/11/20 20:00:19;;;;;;;23.90;15.40;;;;;;;8.50;82.26;98767.77;214801;1322;22538;-77
2021/11/20 20:05:23;;;;;;;22.50;14.50;;;;;;;8.45;82.30;98768.73;214894;1319;22605;-77
2021/11/20 20:10:28;;;;;;;22.10;14.10;;;;;;;8.40;82.38;98765.21;215017;1315;23324;-77
2021/11/20 20:15:33;;;;;;;23.70;14.80;;;;;;;8.37;82.48;98761.59;214992;1322;22516;-76
2021/11/20 20:20:36;;;;;;;18.40;13.00;;;;;;;8.34;82.63;98756.53;214922;1316;25281;-77
2021/11/20 20:25:39;;;;;;;23.60;14.70;;;;;;;8.33;82.63;98753.60;214574;1320;22650;-76
2021/11/20 20:30:57;;;;;;;19.70;12.40;;;;;;;8.33;82.65;98748.42;214764;1319;22572;-76
2021/11/20 20:36:03;;;;;;;19.20;13.50;;;;;;;8.35;82.67;98746.27;215036;1322;22536;-76
2021/11/20 20:41:05;;;;;;;21.10;13.20;;;;;;;8.35;82.49;98740.03;214663;1321;22570;-76
2021/11/20 20:46:07;;;;;;;21.90;13.40;;;;;;;8.31;82.31;98734.81;214650;1320;22523;-76
2021/11/20 20:51:09;;;;;;;23.10;14.10;;;;;;;8.28;82.36;98727.53;214751;1319;23534;-76
2021/11/20 20:56:12;;;;;;;23.20;13.40;;;;;;;8.27;82.48;98714.19;214729;1322;22521;-76
2021/11/20 21:01:15;;;;;;;21.20;13.60;;;;;;;8.25;82.37;98706.19;214830;1322;23960;-76
2021/11/20 21:06:18;;;;;;;20.30;13.10;;;;;;;8.26;82.49;98705.70;214981;1322;22641;-76
2021/11/20 21:11:26;;;;;;;20.00;13.10;;;;;;;8.26;82.41;98699.57;214838;1313;287981;-76
2021/11/20 21:16:43;;;;;;;18.60;11.90;;;;;;;8.23;82.55;98691.41;214673;1318;22676;-76
2021/11/20 21:22:12;;;;;;;17.00;12.10;;;;;;;8.22;82.49;98679.71;214984;1324;23087;-77
2021/11/20 21:27:17;;;;;;;17.00;11.10;;;;;;;8.24;82.47;98681.59;214893;1319;22614;-77
2021/11/20 21:32:22;;;;;;;19.40;12.10;;;;;;;8.23;82.30;98680.42;214953;1320;24197;-76
2021/11/20 21:37:24;;;;;;;20.20;12.70;;;;;;;8.22;82.39;98684.31;214976;1316;24276;-76
2021/11/20 21:42:29;;;;;;;20.60;12.80;;;;;;;8.19;82.35;98678.46;214589;1322;22648;-75
2021/11/20 21:47:31;;;;;;;17.90;11.70;;;;;;;8.16;82.34;98669.13;214917;1316;25386;-76
2021/11/20 21:52:33;;;;;;;17.50;11.90;;;;;;;8.12;82.27;98668.14;214430;1322;24344;-76
2021/11/20 21:57:36;;;;;;;20.90;12.50;;;;;;;8.11;82.41;98662.49;214805;1323;22599;-76
2021/11/20 22:02:41;;;;;;;17.00;11.80;;;;;;;8.11;82.42;98658.44;215153;1321;22863;-76
2021/11/20 22:07:43;;;;;;;16.40;11.40;;;;;;;8.11;82.46;98652.73;214625;1320;22577;-76
2021/11/20 22:12:46;;;;;;;19.60;12.00;;;;;;;8.09;82.42;98646.55;214813;1322;23839;-75
2021/11/20 22:17:48;;;;;;;19.30;12.70;;;;;;;8.10;82.56;98640.73;214793;1319;24345;-76
2021/11/20 22:23:03;;;;;;;20.10;12.90;;;;;;;8.11;82.51;98636.77;215014;1322;22580;-76
2021/11/20 22:28:25;;;;;;;19.90;13.10;;;;;;;8.13;82.45;98623.26;214895;1315;22826;-76
2021/11/20 22:33:29;;;;;;;20.40;12.70;;;;;;;8.14;82.45;98612.53;215005;1320;22523;-76
2021/11/20 22:38:31;;;;;;;22.40;13.00;;;;;;;8.15;82.43;98602.71;215107;1320;25401;-75
2021/11/20 22:43:36;;;;;;;19.10;13.30;;;;;;;8.16;82.39;98598.85;214705;1322;25364;-76
2021/11/20 22:48:38;;;;;;;21.70;12.90;;;;;;;8.15;82.37;98596.35;214464;1322;22683;-75
2021/11/20 22:53:40;;;;;;;21.70;14.20;;;;;;;8.14;82.40;98589.64;215063;1320;22864;-77
2021/11/20 22:58:42;;;;;;;22.70;13.20;;;;;;;8.15;82.42;98587.44;214607;1321;22561;-76
2021/11/20 23:03:44;;;;;;;19.70;12.70;;;;;;;8.14;82.22;98589.38;214820;1322;22759;-76
2021/11/20 23:08:46;;;;;;;20.20;13.50;;;;;;;8.16;82.43;98586.47;214725;1320;22720;-75
2021/11/20 23:14:02;;;;;;;20.30;12.90;;;;;;;8.17;82.22;98569.66;214454;1324;22698;-76
2021/11/20 23:19:04;;;;;;;23.50;14.10;;;;;;;8.18;82.26;98555.89;214677;1324;22592;-76
2021/11/20 23:24:07;;;;;;;21.60;13.00;;;;;;;8.18;82.01;98549.96;214478;1323;25401;-76
2021/11/20 23:29:15;;;;;;;21.50;13.40;;;;;;;8.19;82.11;98551.39;214762;1317;22658;-76
2021/11/20 23:34:24;;;;;;;22.30;13.20;;;;;;;8.20;81.99;98541.63;214851;1322;22636;-76
2021/11/20 23:39:26;;;;;;;17.10;12.00;;;;;;;8.19;81.77;98536.29;214573;1320;22756;-76
2021/11/20 23:44:28;;;;;;;20.40;12.80;;;;;;;8.17;81.81;98525.57;214530;1320;25077;-76
2021/11/20 23:49:31;;;;;;;19.90;13.10;;;;;;;8.17;81.80;98521.46;214711;1322;22826;-76
2021/11/20 23:54:33;;;;;;;18.70;11.80;;;;;;;8.16;81.85;98517.36;214836;1321;23833;-76
2021/11/20 23:59:36;;;;;;;18.40;12.90;;;;;;;8.16;81.91;98509.14;214915;1320;22965;-76
